createdAt,value
2019-05-26T00:04:13.470Z,98.95
2019-05-26T00:09:08.802Z,98.13
2019-05-26T00:14:04.832Z,98.66
2019-05-26T00:19:01.647Z,98.99
2019-05-26T00:23:57.146Z,99.19
2019-05-26T00:28:53.067Z,99.99
2019-05-26T00:33:49.197Z,99.99
2019-05-26T00:38:45.962Z,99.99
2019-05-26T00:43:41.881Z,99.99
2019-05-26T00:48:38.242Z,99.99
2019-05-26T00:53:34.224Z,99.99
2019-05-26T00:58:30.859Z,99.99
2019-05-26T01:03:26.410Z,99.99
2019-05-26T01:08:22.135Z,99.99
2019-05-26T01:13:17.708Z,99.99
2019-05-26T01:18:13.445Z,99.99
2019-05-26T01:23:09.205Z,99.99
2019-05-26T01:28:04.783Z,99.99
2019-05-26T01:33:00.583Z,99.99
2019-05-26T01:37:58.053Z,99.99
2019-05-26T01:42:53.530Z,99.99
2019-05-26T01:47:49.450Z,99.99
2019-05-26T01:52:45.370Z,99.99
2019-05-26T01:57:41.366Z,99.99
2019-05-26T02:02:37.860Z,99.99
2019-05-26T02:07:33.950Z,99.99
2019-05-26T02:12:30.072Z,99.99
2019-05-26T02:17:26.403Z,99.99
2019-05-26T02:22:21.970Z,99.99
2019-05-26T02:27:18.136Z,99.99
2019-05-26T02:32:14.171Z,99.99
2019-05-26T02:37:09.957Z,99.99
2019-05-26T02:42:06.971Z,99.99
2019-05-26T02:47:02.528Z,99.99
2019-05-26T02:51:58.312Z,99.99
2019-05-26T02:56:54.124Z,99.99
2019-05-26T03:02:02.115Z,99.99
2019-05-26T03:06:49.451Z,99.99
2019-05-26T03:11:45.436Z,99.99
2019-05-26T03:16:42.900Z,99.99
2019-05-26T03:21:38.454Z,99.99
2019-05-26T03:26:34.436Z,99.99
2019-05-26T03:31:30.293Z,99.99
2019-05-26T03:36:25.993Z,99.99
2019-05-26T03:41:21.897Z,99.99
2019-05-26T03:46:18.308Z,99.99
2019-05-26T03:51:14.485Z,99.99
2019-05-26T03:56:10.521Z,99.99
2019-05-26T04:01:06.921Z,99.99
2019-05-26T04:06:02.894Z,99.99
2019-05-26T04:10:58.719Z,99.99
2019-05-26T04:15:54.689Z,99.99
2019-05-26T04:20:51.573Z,99.99
2019-05-26T04:25:48.266Z,99.99
2019-05-26T04:30:43.797Z,99.99
2019-05-26T04:35:39.734Z,99.99
2019-05-26T04:40:36.055Z,99.99
2019-05-26T04:45:32.143Z,99.99
2019-05-26T04:50:28.446Z,99.99
2019-05-26T04:55:25.261Z,99.99
2019-05-26T05:00:21.747Z,99.99
2019-05-26T05:05:18.365Z,99.99
2019-05-26T05:10:14.986Z,99.99
2019-05-26T05:15:10.944Z,99.99
2019-05-26T05:20:06.675Z,99.99
2019-05-26T05:25:02.737Z,99.99
2019-05-26T05:29:59.099Z,99.99
2019-05-26T05:34:55.450Z,99.99
2019-05-26T05:39:51.758Z,98.43
2019-05-26T05:44:47.929Z,97.75
2019-05-26T05:49:44.621Z,98.52
2019-05-26T05:54:41.087Z,99.62
2019-05-26T05:59:36.450Z,99.99
2019-05-26T06:04:32.154Z,99.99
2019-05-26T06:09:27.833Z,99.72
2019-05-26T06:14:24.814Z,99.99
2019-05-26T06:19:21.797Z,99.81
2019-05-26T06:24:17.339Z,99.05
2019-05-26T06:29:14.214Z,98.86
2019-05-26T06:34:11.069Z,99.81
2019-05-26T06:39:06.733Z,98.86
2019-05-26T06:44:02.688Z,98.52
2019-05-26T06:48:58.753Z,97.38
2019-05-26T06:53:55.882Z,96.51
2019-05-26T06:58:52.740Z,95.94
2019-05-26T07:03:48.604Z,96.27
2019-05-26T07:08:44.740Z,95.31
2019-05-26T07:13:40.677Z,96.32
2019-05-26T07:18:36.428Z,97.09
2019-05-26T07:23:34.287Z,96.18
2019-05-26T07:28:30.787Z,95.46
2019-05-26T07:33:27.146Z,93.83
2019-05-26T07:38:24.196Z,94.12
2019-05-26T07:43:19.872Z,93.35
2019-05-26T07:48:16.649Z,93.01
2019-05-26T07:53:12.087Z,93.21
2019-05-26T07:58:07.519Z,91.86
2019-05-26T08:03:03.365Z,92.24
2019-05-26T08:08:11.995Z,92.34
2019-05-26T08:12:58.844Z,91.96
2019-05-26T08:17:54.992Z,91.57
2019-05-26T08:22:52.083Z,90.04
2019-05-26T08:27:48.751Z,88.98
2019-05-26T08:32:44.934Z,88.07
2019-05-26T08:37:41.168Z,88.17
2019-05-26T08:42:44.518Z,87.88
2019-05-26T08:47:38.069Z,85.77
2019-05-26T08:52:33.925Z,82.07
2019-05-26T08:57:30.045Z,80.78
2019-05-26T09:02:26.066Z,81.30
2019-05-26T09:07:21.926Z,80.34
2019-05-26T09:12:18.220Z,80.24
2019-05-26T09:17:14.367Z,79.86
2019-05-26T09:22:11.451Z,79.52
2019-05-26T09:27:07.581Z,77.78
2019-05-26T09:32:04.834Z,77.63
2019-05-26T09:37:02.340Z,74.30
2019-05-26T09:41:58.310Z,75.17
2019-05-26T09:46:54.596Z,75.46
2019-05-26T09:51:51.392Z,74.30
2019-05-26T09:56:47.523Z,73.19
2019-05-26T10:01:43.542Z,72.03
2019-05-26T10:06:39.703Z,69.47
2019-05-26T10:11:36.798Z,68.51
2019-05-26T10:16:32.783Z,69.28
2019-05-26T10:21:28.738Z,68.35
2019-05-26T10:26:25.723Z,69.47
2019-05-26T10:31:21.242Z,70.24
2019-05-26T10:36:17.409Z,69.70
2019-05-26T10:41:13.331Z,70.62
2019-05-26T10:46:09.207Z,71.30
2019-05-26T10:51:07.006Z,71.87
2019-05-26T10:56:02.934Z,70.86
2019-05-26T11:00:59.407Z,70.66
2019-05-26T11:05:56.783Z,70.60
2019-05-26T11:10:53.430Z,69.93
2019-05-26T11:15:50.246Z,69.96
2019-05-26T11:20:46.314Z,69.38
2019-05-26T11:25:42.094Z,70.25
2019-05-26T11:30:38.306Z,70.25
2019-05-26T11:35:34.883Z,69.48
2019-05-26T11:40:31.999Z,68.42
2019-05-26T11:45:27.776Z,68.71
2019-05-26T11:50:24.295Z,69.09
2019-05-26T11:55:20.135Z,70.28
2019-05-26T12:00:16.173Z,69.61
2019-05-26T12:05:12.327Z,69.45
2019-05-26T12:10:12.956Z,68.45
2019-05-26T12:15:09.206Z,68.87
2019-05-26T12:20:05.542Z,68.97
2019-05-26T12:25:01.202Z,67.04
2019-05-26T12:29:57.210Z,68.39
2019-05-26T12:34:53.319Z,67.62
2019-05-26T12:39:48.899Z,68.59
2019-05-26T12:44:49.725Z,68.59
2019-05-26T12:49:44.663Z,68.49
2019-05-26T12:54:40.706Z,68.77
2019-05-26T12:59:37.033Z,68.87
2019-05-26T13:04:33.319Z,69.39
2019-05-26T13:09:29.988Z,69.20
2019-05-26T13:14:27.195Z,69.04
2019-05-26T13:19:23.509Z,68.84
2019-05-26T13:24:19.448Z,69.97
2019-05-26T13:29:15.431Z,71.22
2019-05-26T13:34:12.410Z,71.22
2019-05-26T13:39:08.992Z,71.58
2019-05-26T13:44:05.869Z,71.12
2019-05-26T13:49:01.460Z,71.19
2019-05-26T13:53:57.202Z,72.28
2019-05-26T13:58:53.166Z,72.38
2019-05-26T14:03:49.221Z,72.77
2019-05-26T14:08:45.967Z,74.66
2019-05-26T14:13:41.104Z,75.01
2019-05-26T14:18:36.649Z,76.17
2019-05-26T14:23:32.359Z,77.09
2019-05-26T14:28:28.238Z,78.34
2019-05-26T14:33:24.315Z,78.34
2019-05-26T14:38:21.421Z,78.54
2019-05-26T14:43:17.407Z,78.06
2019-05-26T14:48:13.632Z,78.44
2019-05-26T14:53:09.823Z,77.58
2019-05-26T14:58:15.618Z,78.00
2019-05-26T15:03:06.667Z,77.33
2019-05-26T15:08:02.486Z,76.84
2019-05-26T15:12:58.569Z,76.93
2019-05-26T15:17:54.381Z,77.23
2019-05-26T15:22:50.431Z,77.71
2019-05-26T15:27:46.795Z,77.86
2019-05-26T15:32:42.566Z,78.00
2019-05-26T15:37:38.659Z,78.44
2019-05-26T15:42:34.633Z,77.81
2019-05-26T15:47:30.773Z,78.00
2019-05-26T15:52:27.722Z,78.38
2019-05-26T15:57:23.600Z,77.90
2019-05-26T16:02:19.389Z,78.15
2019-05-26T16:07:15.477Z,77.96
2019-05-26T16:12:11.165Z,77.96
2019-05-26T16:17:07.980Z,78.25
2019-05-26T16:22:04.412Z,77.38
2019-05-26T16:27:17.860Z,77.28
2019-05-26T16:32:00.106Z,76.90
2019-05-26T16:36:55.804Z,77.58
2019-05-26T16:41:53.011Z,78.15
2019-05-26T16:46:56.587Z,78.34
2019-05-26T16:51:48.782Z,78.79
2019-05-26T16:56:45.224Z,78.21
2019-05-26T17:01:41.922Z,78.69
2019-05-26T17:06:38.614Z,78.88
2019-05-26T17:11:35.416Z,78.88
2019-05-26T17:16:31.559Z,79.56
2019-05-26T17:21:28.534Z,79.56
2019-05-26T17:26:24.184Z,80.62
2019-05-26T17:31:20.630Z,80.52
2019-05-26T17:36:16.617Z,80.91
2019-05-26T17:41:12.441Z,81.20
2019-05-26T17:46:08.192Z,81.96
2019-05-26T17:51:04.115Z,81.77
2019-05-26T17:56:00.085Z,81.48
2019-05-26T18:00:56.043Z,81.68
2019-05-26T18:05:52.310Z,81.48
2019-05-26T18:10:48.094Z,81.58
2019-05-26T18:15:44.546Z,81.10
2019-05-26T18:20:40.650Z,81.58
2019-05-26T18:25:36.597Z,81.77
2019-05-26T18:30:33.390Z,81.83
2019-05-26T18:35:28.887Z,81.93
2019-05-26T18:40:25.834Z,81.54
2019-05-26T18:45:21.572Z,81.16
2019-05-26T18:50:17.283Z,80.58
2019-05-26T18:55:13.281Z,80.10
2019-05-26T19:00:09.035Z,80.48
2019-05-26T19:05:05.295Z,81.06
2019-05-26T19:10:01.156Z,81.21
2019-05-26T19:14:57.111Z,81.88
2019-05-26T19:19:53.066Z,82.37
2019-05-26T19:24:48.808Z,82.56
2019-05-26T19:29:44.737Z,83.14
2019-05-26T19:34:40.498Z,83.33
2019-05-26T19:39:36.548Z,83.81
2019-05-26T19:44:32.373Z,83.91
2019-05-26T19:49:28.400Z,84.67
2019-05-26T19:54:24.389Z,84.67
2019-05-26T19:59:20.196Z,84.39
2019-05-26T20:04:17.197Z,84.19
2019-05-26T20:09:12.941Z,83.62
2019-05-26T20:14:08.802Z,83.42
2019-05-26T20:19:05.856Z,83.33
2019-05-26T20:24:01.523Z,83.67
2019-05-26T20:28:57.238Z,83.77
2019-05-26T20:33:53.277Z,84.25
2019-05-26T20:38:49.028Z,84.92
2019-05-26T20:43:45.433Z,85.50
2019-05-26T20:48:42.829Z,85.60
2019-05-26T20:53:40.623Z,86.36
2019-05-26T20:58:35.812Z,86.65
2019-05-26T21:03:31.678Z,87.33
2019-05-26T21:08:27.466Z,86.56
2019-05-26T21:13:23.541Z,84.11
2019-05-26T21:18:19.561Z,83.92
2019-05-26T21:23:15.542Z,84.59
2019-05-26T21:28:12.461Z,85.17
2019-05-26T21:33:08.194Z,85.55
2019-05-26T21:38:03.949Z,85.65
2019-05-26T21:42:59.836Z,86.57
2019-05-26T21:47:55.717Z,87.15
2019-05-26T21:52:52.405Z,87.15
2019-05-26T21:57:47.887Z,87.72
2019-05-26T22:02:43.987Z,87.96
2019-05-26T22:07:39.735Z,89.02
2019-05-26T22:12:36.553Z,89.60
2019-05-26T22:17:33.143Z,90.27
2019-05-26T22:22:28.531Z,89.98
2019-05-26T22:27:24.546Z,90.37
2019-05-26T22:32:20.329Z,90.75
2019-05-26T22:37:16.211Z,90.46
2019-05-26T22:42:12.401Z,91.13
2019-05-26T22:47:08.239Z,91.13
2019-05-26T22:52:04.170Z,92.00
2019-05-26T22:57:00.997Z,92.43
2019-05-26T23:01:56.557Z,92.91
2019-05-26T23:06:52.381Z,93.68
2019-05-26T23:11:49.376Z,94.16
2019-05-26T23:16:44.853Z,94.64
2019-05-26T23:21:41.597Z,95.41
2019-05-26T23:26:37.180Z,95.60
2019-05-26T23:31:34.089Z,95.98
2019-05-26T23:36:29.781Z,96.18
2019-05-26T23:41:25.588Z,97.09
2019-05-26T23:46:21.474Z,98.14
2019-05-26T23:51:17.259Z,99.77
2019-05-26T23:56:13.430Z,99.99
